createdAt,value
2023-04-11T00:00:50.853Z,98725.00
2023-04-11T00:02:24.484Z,98733.00
2023-04-11T00:03:57.933Z,98738.00
2023-04-11T00:05:31.287Z,98737.00
2023-04-11T00:07:04.428Z,98728.00
2023-04-11T00:08:39.151Z,98736.00
2023-04-11T00:10:11.440Z,98742.00
2023-04-11T00:11:44.829Z,98729.00
2023-04-11T00:13:20.230Z,98728.00
2023-04-11T00:14:53.823Z,98721.00
2023-04-11T00:16:27.338Z,98725.00
2023-04-11T00:18:00.619Z,98725.00
2023-04-11T00:19:33.307Z,98716.00
2023-04-11T00:21:07.815Z,98714.00
2023-04-11T00:22:40.558Z,98718.00
2023-04-11T00:24:15.407Z,98721.00
2023-04-11T00:25:47.719Z,98726.00
2023-04-11T00:27:21.916Z,98731.00
2023-04-11T00:28:55.742Z,98733.00
2023-04-11T00:30:29.448Z,98735.00
2023-04-11T00:32:02.685Z,98731.00
2023-04-11T00:33:35.968Z,98726.00
2023-04-11T00:35:09.306Z,98721.00
2023-04-11T00:36:42.597Z,98718.00
2023-04-11T00:38:16.594Z,98723.00
2023-04-11T00:39:53.169Z,98722.00
2023-04-11T00:41:26.383Z,98722.00
2023-04-11T00:42:59.815Z,98714.00
2023-04-11T00:44:32.198Z,98731.00
2023-04-11T00:46:06.312Z,98724.00
2023-04-11T00:47:39.810Z,98707.00
2023-04-11T00:49:12.464Z,98717.00
2023-04-11T00:50:46.240Z,98717.00
2023-04-11T00:52:19.428Z,98715.00
2023-04-11T00:53:52.710Z,98706.00
2023-04-11T00:55:28.183Z,98714.00
2023-04-11T00:57:02.833Z,98721.00
2023-04-11T00:58:37.854Z,98713.00
2023-04-11T01:00:17.951Z,98704.00
2023-04-11T01:01:50.382Z,98704.00
2023-04-11T01:03:23.819Z,98704.00
2023-04-11T01:04:56.802Z,98716.00
2023-04-11T01:06:32.581Z,98711.00
2023-04-11T01:08:05.544Z,98719.00
2023-04-11T01:09:39.951Z,98711.00
2023-04-11T01:11:18.120Z,98712.00
2023-04-11T01:12:52.148Z,98717.00
2023-04-11T01:14:27.205Z,98712.00
2023-04-11T01:16:00.952Z,98708.00
2023-04-11T01:17:33.832Z,98723.00
2023-04-11T01:19:08.804Z,98709.00
2023-04-11T01:20:42.342Z,98705.00
2023-04-11T01:22:18.578Z,98708.00
2023-04-11T01:23:52.779Z,98699.00
2023-04-11T01:25:26.690Z,98703.00
2023-04-11T01:27:01.928Z,98697.00
2023-04-11T01:28:34.080Z,98693.00
2023-04-11T01:30:12.343Z,98688.00
2023-04-11T01:31:45.723Z,98683.00
2023-04-11T01:33:19.035Z,98680.00
2023-04-11T01:34:54.081Z,98682.00
2023-04-11T01:36:28.859Z,98682.00
2023-04-11T01:38:03.561Z,98673.00
2023-04-11T01:39:38.147Z,98681.00
2023-04-11T01:41:12.195Z,98684.00
2023-04-11T01:42:47.720Z,98674.00
2023-04-11T01:44:21.634Z,98674.00
2023-04-11T01:45:55.161Z,98679.00
2023-04-11T01:47:28.389Z,98674.00
2023-04-11T01:49:01.286Z,98667.00
2023-04-11T01:50:35.157Z,98673.00
2023-04-11T01:52:08.502Z,98667.00
2023-04-11T01:53:41.598Z,98653.00
2023-04-11T01:55:15.610Z,98662.00
2023-04-11T01:56:49.076Z,98652.00
2023-04-11T01:58:21.399Z,98662.00
2023-04-11T01:59:54.976Z,98665.00
2023-04-11T02:01:28.619Z,98667.00
2023-04-11T02:03:05.099Z,98665.00
2023-04-11T02:04:38.536Z,98665.00
2023-04-11T02:06:12.910Z,98668.00
2023-04-11T02:07:45.249Z,98677.00
2023-04-11T02:09:23.821Z,98683.00
2023-04-11T02:10:58.883Z,98687.00
2023-04-11T02:12:32.271Z,98686.00
2023-04-11T02:14:06.333Z,98687.00
2023-04-11T02:15:39.611Z,98685.00
2023-04-11T02:17:13.951Z,98687.00
2023-04-11T02:18:47.337Z,98683.00
2023-04-11T02:20:23.090Z,98698.00
2023-04-11T02:21:56.167Z,98693.00
2023-04-11T02:23:28.342Z,98688.00
2023-04-11T02:25:01.691Z,98686.00
2023-04-11T02:26:38.697Z,98692.00
2023-04-11T02:28:11.791Z,98685.00
2023-04-11T02:29:45.071Z,98688.00
2023-04-11T02:31:18.327Z,98675.00
2023-04-11T02:32:50.600Z,98676.00
2023-04-11T02:34:23.876Z,98674.00
2023-04-11T02:35:57.042Z,98669.00
2023-04-11T02:37:29.240Z,98679.00
2023-04-11T02:39:03.526Z,98677.00
2023-04-11T02:40:36.668Z,98676.00
2023-04-11T02:42:12.100Z,98675.00
2023-04-11T02:43:45.482Z,98683.00
2023-04-11T02:45:18.645Z,98690.00
2023-04-11T02:46:50.835Z,98681.00
2023-04-11T02:48:24.226Z,98681.00
2023-04-11T02:49:57.570Z,98684.00
2023-04-11T02:51:36.199Z,98692.00
2023-04-11T02:53:08.481Z,98687.00
2023-04-11T02:54:45.056Z,98701.00
2023-04-11T02:56:20.090Z,98693.00
2023-04-11T02:57:59.175Z,98698.00
2023-04-11T02:59:32.354Z,98692.00
2023-04-11T03:01:08.170Z,98704.00
2023-04-11T03:02:41.555Z,98706.00
2023-04-11T03:04:15.327Z,98699.00
2023-04-11T03:06:01.806Z,98711.00
2023-04-11T03:07:34.693Z,98713.00
2023-04-11T03:09:07.966Z,98712.00
2023-04-11T03:10:41.195Z,98711.00
2023-04-11T03:12:19.932Z,98719.00
2023-04-11T03:14:01.205Z,98715.00
2023-04-11T03:15:34.399Z,98717.00
2023-04-11T03:17:11.722Z,98719.00
2023-04-11T03:18:45.187Z,98710.00
2023-04-11T03:20:20.457Z,98711.00
2023-04-11T03:21:57.965Z,98723.00
2023-04-11T03:23:31.925Z,98716.00
2023-04-11T03:25:06.310Z,98717.00
2023-04-11T03:26:39.666Z,98715.00
2023-04-11T03:28:17.261Z,98723.00
2023-04-11T03:29:51.735Z,98719.00
2023-04-11T03:31:33.098Z,98711.00
2023-04-11T03:33:06.386Z,98712.00
2023-04-11T03:34:39.787Z,98715.00
2023-04-11T03:36:16.599Z,98727.00
2023-04-11T03:37:50.063Z,98716.00
2023-04-11T03:39:24.027Z,98715.00
2023-04-11T03:40:58.085Z,98714.00
2023-04-11T03:42:32.630Z,98726.00
2023-04-11T03:44:07.946Z,98722.00
2023-04-11T03:45:42.719Z,98721.00
2023-04-11T03:47:24.022Z,98724.00
2023-04-11T03:48:58.006Z,98728.00
2023-04-11T03:50:30.756Z,98729.00
2023-04-11T03:52:09.581Z,98728.00
2023-04-11T03:53:43.467Z,98727.00
2023-04-11T03:55:36.322Z,98740.00
2023-04-11T03:57:12.263Z,98727.00
2023-04-11T03:58:45.580Z,98736.00
2023-04-11T04:00:21.007Z,98732.00
2023-04-11T04:02:07.072Z,98742.00
2023-04-11T04:03:43.050Z,98741.00
2023-04-11T04:05:19.697Z,98748.00
2023-04-11T04:06:56.709Z,98744.00
2023-04-11T04:08:37.276Z,98738.00
2023-04-11T04:10:11.201Z,98747.00
2023-04-11T04:11:46.158Z,98739.00
2023-04-11T04:13:19.916Z,98745.00
2023-04-11T04:14:58.623Z,98745.00
2023-04-11T04:16:32.048Z,98745.00
2023-04-11T04:18:09.614Z,98753.00
2023-04-11T04:19:54.009Z,98754.00
2023-04-11T04:21:32.537Z,98754.00
2023-04-11T04:23:05.981Z,98757.00
2023-04-11T04:25:03.534Z,98753.00
2023-04-11T04:26:39.635Z,98761.00
2023-04-11T04:28:27.695Z,98762.00
2023-04-11T04:30:04.673Z,98768.00
2023-04-11T04:31:57.180Z,98760.00
2023-04-11T04:33:44.046Z,98757.00
2023-04-11T04:35:28.247Z,98750.00
2023-04-11T04:37:03.654Z,98755.00
2023-04-11T04:38:48.124Z,98753.00
2023-04-11T04:40:22.488Z,98751.00
2023-04-11T04:42:01.785Z,98750.00
2023-04-11T04:43:42.965Z,98756.00
2023-04-11T04:45:23.979Z,98748.00
2023-04-11T04:46:58.423Z,98742.00
2023-04-11T04:48:34.048Z,98742.00
2023-04-11T04:50:10.018Z,98751.00
2023-04-11T04:51:43.259Z,98757.00
2023-04-11T04:53:16.507Z,98761.00
2023-04-11T04:54:57.811Z,98757.00
2023-04-11T04:56:32.207Z,98762.00
2023-04-11T04:58:05.785Z,98759.00
2023-04-11T04:59:38.874Z,98755.00
2023-04-11T05:01:19.055Z,98775.00
2023-04-11T05:02:55.128Z,98773.00
2023-04-11T05:04:31.898Z,98782.00
2023-04-11T05:06:09.297Z,98781.00
2023-04-11T05:07:43.610Z,98774.00
2023-04-11T05:09:18.934Z,98781.00
2023-04-11T05:10:53.280Z,98770.00
2023-04-11T05:12:27.918Z,98773.00
2023-04-11T05:14:06.070Z,98777.00
2023-04-11T05:15:40.392Z,98778.00
2023-04-11T05:17:13.571Z,98798.00
2023-04-11T05:18:47.004Z,98787.00
2023-04-11T05:20:21.789Z,98792.00
2023-04-11T05:21:56.986Z,98798.00
2023-04-11T05:23:30.245Z,98798.00
2023-04-11T05:25:09.216Z,98797.00
2023-04-11T05:26:44.562Z,98801.00
2023-04-11T05:28:18.224Z,98797.00
2023-04-11T05:29:51.398Z,98791.00
2023-04-11T05:31:25.675Z,98796.00
2023-04-11T05:32:59.052Z,98802.00
2023-04-11T05:34:34.187Z,98806.00
2023-04-11T05:36:08.917Z,98801.00
2023-04-11T05:37:44.809Z,98801.00
2023-04-11T05:39:18.668Z,98806.00
2023-04-11T05:40:51.903Z,98826.00
2023-04-11T05:42:26.082Z,98818.00
2023-04-11T05:43:59.256Z,98809.00
2023-04-11T05:45:32.497Z,98809.00
2023-04-11T05:47:06.003Z,98807.00
2023-04-11T05:48:39.278Z,98817.00
2023-04-11T05:50:12.625Z,98814.00
2023-04-11T05:51:45.810Z,98812.00
2023-04-11T05:53:21.002Z,98826.00
2023-04-11T05:54:54.172Z,98814.00
2023-04-11T05:56:27.543Z,98828.00
2023-04-11T05:58:00.947Z,98823.00
2023-04-11T05:59:34.647Z,98825.00
2023-04-11T06:01:12.259Z,98826.00
2023-04-11T06:02:45.068Z,98832.00
2023-04-11T06:04:18.856Z,98826.00
2023-04-11T06:05:52.111Z,98840.00
2023-04-11T06:07:27.747Z,98843.00
2023-04-11T06:09:02.874Z,98825.00
2023-04-11T06:10:36.745Z,98835.00
2023-04-11T06:12:14.818Z,98834.00
2023-04-11T06:13:48.219Z,98833.00
2023-04-11T06:15:21.979Z,98820.00
2023-04-11T06:16:55.813Z,98838.00
2023-04-11T06:18:29.189Z,98846.00
2023-04-11T06:20:04.752Z,98843.00
2023-04-11T06:21:39.101Z,98843.00
2023-04-11T06:23:12.512Z,98849.00
2023-04-11T06:24:47.023Z,98849.00
2023-04-11T06:26:20.190Z,98838.00
2023-04-11T06:27:53.371Z,98849.00
2023-04-11T06:29:26.596Z,98849.00
2023-04-11T06:30:59.799Z,98857.00
2023-04-11T06:32:33.095Z,98852.00
2023-04-11T06:34:06.366Z,98861.00
2023-04-11T06:35:39.665Z,98860.00
2023-04-11T06:37:13.107Z,98860.00
2023-04-11T06:38:46.294Z,98853.00
2023-04-11T06:40:21.268Z,98856.00
2023-04-11T06:41:54.655Z,98867.00
2023-04-11T06:43:32.212Z,98859.00
2023-04-11T06:45:06.583Z,98853.00
2023-04-11T06:46:39.853Z,98861.00
2023-04-11T06:48:13.136Z,98876.00
2023-04-11T06:49:46.372Z,98869.00
2023-04-11T06:51:19.569Z,98888.00
2023-04-11T06:52:52.723Z,98885.00
2023-04-11T06:54:26.213Z,98879.00
2023-04-11T06:56:01.356Z,98896.00
2023-04-11T06:57:34.869Z,98894.00
2023-04-11T06:59:07.988Z,98900.00
2023-04-11T07:00:41.628Z,98901.00
2023-04-11T07:02:15.389Z,98909.00
2023-04-11T07:03:50.007Z,98921.00
2023-04-11T07:05:23.500Z,98916.00
2023-04-11T07:06:56.714Z,98911.00
2023-04-11T07:08:29.854Z,98907.00
2023-04-11T07:10:03.155Z,98917.00
2023-04-11T07:11:38.425Z,98922.00
2023-04-11T07:13:12.153Z,98917.00
2023-04-11T07:14:45.358Z,98913.00
2023-04-11T07:16:18.585Z,98926.00
2023-04-11T07:17:52.835Z,98920.00
2023-04-11T07:19:26.213Z,98927.00
2023-04-11T07:20:59.583Z,98927.00
2023-04-11T07:22:32.913Z,98926.00
2023-04-11T07:24:07.054Z,98922.00
2023-04-11T07:25:40.261Z,98933.00
2023-04-11T07:27:15.639Z,98924.00
2023-04-11T07:28:48.824Z,98935.00
2023-04-11T07:30:22.024Z,98931.00
2023-04-11T07:31:55.519Z,98940.00
2023-04-11T07:33:28.765Z,98927.00
2023-04-11T07:35:02.108Z,98929.00
2023-04-11T07:36:35.647Z,98929.00
2023-04-11T07:38:10.424Z,98933.00
2023-04-11T07:39:44.552Z,98941.00
2023-04-11T07:41:17.947Z,98937.00
2023-04-11T07:42:52.520Z,98932.00
2023-04-11T07:44:27.208Z,98946.00
2023-04-11T07:46:00.736Z,98952.00
2023-04-11T07:47:34.167Z,98947.00
2023-04-11T07:49:07.349Z,98934.00
2023-04-11T07:50:40.916Z,98948.00
2023-04-11T07:52:14.570Z,98941.00
2023-04-11T07:53:47.850Z,98942.00
2023-04-11T07:55:21.023Z,98951.00
2023-04-11T07:56:54.215Z,98958.00
2023-04-11T07:58:30.313Z,98937.00
2023-04-11T08:00:04.293Z,98949.00
2023-04-11T08:01:45.602Z,98943.00
2023-04-11T08:03:19.128Z,98948.00
2023-04-11T08:04:52.862Z,98947.00
2023-04-11T08:06:26.434Z,98947.00
2023-04-11T08:07:59.644Z,98956.00
2023-04-11T08:09:32.825Z,98950.00
2023-04-11T08:11:06.278Z,98966.00
2023-04-11T08:12:39.531Z,98957.00
2023-04-11T08:14:14.147Z,98969.00
2023-04-11T08:15:47.488Z,98954.00
2023-04-11T08:17:27.741Z,98951.00
2023-04-11T08:19:01.559Z,98965.00
2023-04-11T08:20:34.902Z,98959.00
2023-04-11T08:22:08.424Z,98956.00
2023-04-11T08:23:42.407Z,98963.00
2023-04-11T08:25:19.605Z,98959.00
2023-04-11T08:26:52.810Z,98964.00
2023-04-11T08:28:26.341Z,98960.00
2023-04-11T08:30:01.392Z,98966.00
2023-04-11T08:31:34.804Z,98963.00
2023-04-11T08:33:09.529Z,98976.00
2023-04-11T08:34:42.786Z,98968.00
2023-04-11T08:36:16.004Z,98968.00
2023-04-11T08:37:49.700Z,98967.00
2023-04-11T08:39:23.027Z,98957.00
2023-04-11T08:40:56.567Z,98966.00
2023-04-11T08:42:31.932Z,98963.00
2023-04-11T08:44:05.599Z,98971.00
2023-04-11T08:45:40.441Z,98970.00
2023-04-11T08:47:17.077Z,98962.00
2023-04-11T08:48:50.968Z,98958.00
2023-04-11T08:50:24.307Z,98963.00
2023-04-11T08:51:57.961Z,98956.00
2023-04-11T08:53:35.856Z,98964.00
2023-04-11T08:55:10.519Z,98978.00
2023-04-11T08:56:44.042Z,98983.00
2023-04-11T08:58:17.470Z,98973.00
2023-04-11T08:59:51.471Z,98993.00
2023-04-11T09:01:32.160Z,98986.00
2023-04-11T09:03:08.503Z,98978.00
2023-04-11T09:04:42.838Z,98978.00
2023-04-11T09:06:16.657Z,98974.00
2023-04-11T09:07:50.744Z,98978.00
2023-04-11T09:09:31.054Z,98982.00
2023-04-11T09:11:04.420Z,98989.00
2023-04-11T09:12:37.654Z,98981.00
2023-04-11T09:14:12.418Z,98985.00
2023-04-11T09:15:45.802Z,98978.00
2023-04-11T09:17:20.558Z,98979.00
2023-04-11T09:18:53.757Z,98985.00
2023-04-11T09:20:30.157Z,98984.00
2023-04-11T09:22:06.076Z,98982.00
2023-04-11T09:23:39.984Z,98976.00
2023-04-11T09:25:13.337Z,98999.00
2023-04-11T09:26:46.569Z,98992.00
2023-04-11T09:28:19.782Z,98976.00
2023-04-11T09:29:52.916Z,98988.00
2023-04-11T09:31:42.164Z,98993.00
2023-04-11T09:33:28.182Z,98987.00
2023-04-11T09:35:16.500Z,98996.00
2023-04-11T09:36:56.138Z,98990.00
2023-04-11T09:38:33.003Z,98976.00
2023-04-11T09:40:07.816Z,98977.00
2023-04-11T09:41:40.865Z,98975.00
2023-04-11T09:43:14.344Z,98990.00
2023-04-11T09:44:47.527Z,98978.00
2023-04-11T09:46:21.899Z,98967.00
2023-04-11T09:47:57.128Z,98986.00
2023-04-11T09:49:34.086Z,98970.00
2023-04-11T09:51:08.440Z,98977.00
2023-04-11T09:52:43.841Z,98990.00
2023-04-11T09:54:18.101Z,98987.00
2023-04-11T09:55:51.366Z,98982.00
2023-04-11T09:57:27.000Z,98986.00
2023-04-11T09:59:03.593Z,98992.00
2023-04-11T10:00:37.685Z,98977.00
2023-04-11T10:02:11.242Z,98977.00
2023-04-11T10:03:47.463Z,98965.00
2023-04-11T10:05:26.931Z,98987.00
2023-04-11T10:07:14.255Z,98974.00
2023-04-11T10:08:47.936Z,98981.00
2023-04-11T10:10:26.291Z,98980.00
2023-04-11T10:11:59.944Z,98975.00
2023-04-11T10:13:41.215Z,98995.00
2023-04-11T10:15:15.654Z,98984.00
2023-04-11T10:17:21.292Z,98990.00
2023-04-11T10:19:24.125Z,98988.00
2023-04-11T10:20:59.484Z,98995.00
2023-04-11T10:23:01.446Z,99003.00
2023-04-11T10:24:34.825Z,98993.00
2023-04-11T10:26:10.623Z,98980.00
2023-04-11T10:27:48.261Z,98994.00
2023-04-11T10:29:51.577Z,98990.00
2023-04-11T10:31:26.457Z,98998.00
2023-04-11T10:33:17.207Z,98994.00
2023-04-11T10:35:26.043Z,98995.00
2023-04-11T10:37:06.021Z,98995.00
2023-04-11T10:38:49.848Z,99003.00
2023-04-11T10:40:25.083Z,99004.00
2023-04-11T10:42:27.629Z,99012.00
2023-04-11T10:44:21.213Z,99003.00
2023-04-11T10:46:18.750Z,99009.00
2023-04-11T10:48:10.292Z,99010.00
2023-04-11T10:49:47.243Z,99016.00
2023-04-11T10:51:27.813Z,99009.00
2023-04-11T10:53:04.435Z,99020.00
2023-04-11T10:54:37.844Z,99027.00
2023-04-11T10:56:11.059Z,99029.00
2023-04-11T10:58:06.862Z,99022.00
2023-04-11T11:00:10.620Z,99043.00
2023-04-11T11:01:55.952Z,99025.00
2023-04-11T11:03:34.198Z,99030.00
2023-04-11T11:05:22.083Z,99024.00
2023-04-11T11:06:57.354Z,99020.00
2023-04-11T11:08:34.908Z,99025.00
2023-04-11T11:10:10.019Z,99026.00
2023-04-11T11:11:43.178Z,99024.00
2023-04-11T11:13:17.910Z,99026.00
2023-04-11T11:14:51.086Z,99024.00
2023-04-11T11:16:26.755Z,99037.00
2023-04-11T11:18:00.337Z,99039.00
2023-04-11T11:19:33.950Z,99035.00
2023-04-11T11:21:11.263Z,99037.00
2023-04-11T11:23:02.950Z,99035.00
2023-04-11T11:24:37.419Z,99040.00
2023-04-11T11:26:10.640Z,99036.00
2023-04-11T11:27:43.776Z,99019.00
2023-04-11T11:29:17.620Z,99038.00
2023-04-11T11:30:54.860Z,99038.00
2023-04-11T11:32:29.248Z,99034.00
2023-04-11T11:34:18.282Z,99020.00
2023-04-11T11:35:59.334Z,99044.00
2023-04-11T11:37:32.596Z,99014.00
2023-04-11T11:39:06.991Z,99042.00
2023-04-11T11:40:42.103Z,99036.00
2023-04-11T11:42:15.643Z,99044.00
2023-04-11T11:43:48.780Z,99036.00
2023-04-11T11:47:03.739Z,99042.00
2023-04-11T11:48:37.246Z,99049.00
2023-04-11T11:50:11.959Z,99050.00
2023-04-11T11:51:47.887Z,99042.00
2023-04-11T11:53:22.313Z,99051.00
2023-04-11T11:54:55.474Z,99044.00
2023-04-11T11:56:30.153Z,99038.00
2023-04-11T11:58:03.869Z,99037.00
2023-04-11T11:59:37.618Z,99038.00
2023-04-11T12:01:16.767Z,99036.00
2023-04-11T12:02:53.341Z,99048.00
2023-04-11T12:04:27.317Z,99057.00
2023-04-11T12:06:01.020Z,99047.00
2023-04-11T12:07:37.287Z,99053.00
2023-04-11T12:09:13.110Z,99035.00
2023-04-11T12:10:48.337Z,99049.00
2023-04-11T12:12:22.919Z,99053.00
2023-04-11T12:13:56.686Z,99059.00
2023-04-11T12:15:30.103Z,99048.00
2023-04-11T12:17:03.401Z,99053.00
2023-04-11T12:18:41.491Z,99056.00
2023-04-11T12:20:15.858Z,99061.00
2023-04-11T12:21:49.104Z,99048.00
2023-04-11T12:23:22.763Z,99049.00
2023-04-11T12:25:07.053Z,99044.00
2023-04-11T12:26:52.882Z,99054.00
2023-04-11T12:28:35.721Z,99052.00
2023-04-11T12:30:09.237Z,99054.00
2023-04-11T12:31:44.506Z,99066.00
2023-04-11T12:33:19.021Z,99058.00
2023-04-11T12:34:52.409Z,99070.00
2023-04-11T12:36:25.931Z,99067.00
2023-04-11T12:37:59.367Z,99073.00
2023-04-11T12:39:33.159Z,99067.00
2023-04-11T12:41:30.120Z,99079.00
2023-04-11T12:42:59.896Z,99072.00
2023-04-11T12:44:34.612Z,99073.00
2023-04-11T12:46:08.009Z,99061.00
2023-04-11T12:47:41.392Z,99078.00
2023-04-11T12:49:14.610Z,99062.00
2023-04-11T12:50:47.745Z,99057.00
2023-04-11T12:52:21.402Z,99052.00
2023-04-11T12:53:56.916Z,99063.00
2023-04-11T12:55:30.193Z,99073.00
2023-04-11T12:57:04.177Z,99071.00
2023-04-11T12:58:37.312Z,99067.00
2023-04-11T13:00:14.047Z,99071.00
2023-04-11T13:01:47.494Z,99068.00
2023-04-11T13:03:21.328Z,99074.00
2023-04-11T13:04:55.270Z,99079.00
2023-04-11T13:06:29.447Z,99067.00
2023-04-11T13:08:02.916Z,99068.00
2023-04-11T13:09:36.653Z,99065.00
2023-04-11T13:11:09.791Z,99070.00
2023-04-11T13:12:44.486Z,99070.00
2023-04-11T13:14:18.041Z,99070.00
2023-04-11T13:15:52.623Z,99061.00
2023-04-11T13:17:25.968Z,99067.00
2023-04-11T13:18:59.156Z,99065.00
2023-04-11T13:20:32.824Z,99070.00
2023-04-11T13:22:06.410Z,99059.00
2023-04-11T13:23:39.649Z,99068.00
2023-04-11T13:25:13.171Z,99069.00
2023-04-11T13:26:46.482Z,99062.00
2023-04-11T13:28:21.697Z,99071.00
2023-04-11T13:29:54.920Z,99075.00
2023-04-11T13:31:29.702Z,99087.00
2023-04-11T13:33:03.775Z,99090.00
2023-04-11T13:34:36.982Z,99086.00
2023-04-11T13:36:11.925Z,99093.00
2023-04-11T13:37:45.334Z,99083.00
2023-04-11T13:39:18.629Z,99095.00
2023-04-11T13:40:51.792Z,99081.00
2023-04-11T13:42:25.297Z,99091.00
2023-04-11T13:43:58.674Z,99081.00
2023-04-11T13:45:32.348Z,99078.00
2023-04-11T13:47:07.072Z,99086.00
2023-04-11T13:48:40.256Z,99084.00
2023-04-11T13:50:13.536Z,99079.00
2023-04-11T13:51:47.128Z,99084.00
2023-04-11T13:53:20.229Z,99078.00
2023-04-11T13:54:53.375Z,99078.00
2023-04-11T13:56:27.018Z,99076.00
2023-04-11T13:58:00.283Z,99075.00
2023-04-11T13:59:33.448Z,99072.00
2023-04-11T14:01:08.085Z,99077.00
2023-04-11T14:02:44.374Z,99085.00
2023-04-11T14:04:18.118Z,99076.00
2023-04-11T14:05:51.588Z,99066.00
2023-04-11T14:07:25.141Z,99055.00
2023-04-11T14:08:58.826Z,99066.00
2023-04-11T14:10:32.046Z,99057.00
2023-04-11T14:12:05.483Z,99064.00
2023-04-11T14:13:38.709Z,99067.00
2023-04-11T14:15:12.860Z,99075.00
2023-04-11T14:16:46.088Z,99073.00
2023-04-11T14:18:20.776Z,99072.00
2023-04-11T14:19:53.965Z,99057.00
2023-04-11T14:21:28.861Z,99060.00
2023-04-11T14:23:02.280Z,99060.00
2023-04-11T14:24:36.178Z,99065.00
2023-04-11T14:26:09.564Z,99049.00
2023-04-11T14:27:43.220Z,99058.00
2023-04-11T14:29:16.413Z,99056.00
2023-04-11T14:30:49.957Z,99061.00
2023-04-11T14:32:23.198Z,99044.00
2023-04-11T14:33:57.867Z,99036.00
2023-04-11T14:35:31.541Z,99062.00
2023-04-11T14:37:04.702Z,99052.00
2023-04-11T14:38:37.881Z,99044.00
2023-04-11T14:40:12.255Z,99066.00
2023-04-11T14:41:45.561Z,99038.00
2023-04-11T14:43:18.793Z,99039.00
2023-04-11T14:44:53.476Z,99048.00
2023-04-11T14:46:26.817Z,99034.00
2023-04-11T14:48:00.409Z,99032.00
2023-04-11T14:49:35.312Z,99036.00
2023-04-11T14:51:09.165Z,99025.00
2023-04-11T14:52:42.297Z,99037.00
2023-04-11T14:54:15.709Z,99035.00
2023-04-11T14:55:49.098Z,99043.00
2023-04-11T14:57:23.978Z,99031.00
2023-04-11T14:58:57.210Z,99029.00
2023-04-11T15:00:30.658Z,99039.00
2023-04-11T15:02:04.930Z,99025.00
2023-04-11T15:03:38.361Z,99032.00
2023-04-11T15:05:16.877Z,99031.00
2023-04-11T15:06:50.148Z,99025.00
2023-04-11T15:08:23.648Z,99034.00
2023-04-11T15:09:56.825Z,99026.00
2023-04-11T15:11:30.067Z,99030.00
2023-04-11T15:13:03.719Z,99033.00
2023-04-11T15:14:36.836Z,99027.00
2023-04-11T15:16:10.201Z,99020.00
2023-04-11T15:17:47.440Z,99023.00
2023-04-11T15:19:22.843Z,99021.00
2023-04-11T15:20:59.899Z,99035.00
2023-04-11T15:22:35.168Z,99026.00
2023-04-11T15:24:08.629Z,99033.00
2023-04-11T15:25:42.342Z,99031.00
2023-04-11T15:27:15.586Z,99027.00
2023-04-11T15:28:48.836Z,99028.00
2023-04-11T15:30:21.996Z,99042.00
2023-04-11T15:31:55.308Z,99034.00
2023-04-11T15:33:28.673Z,99041.00
2023-04-11T15:35:02.185Z,99036.00
2023-04-11T15:36:38.242Z,99038.00
2023-04-11T15:38:13.215Z,99037.00
2023-04-11T15:39:47.015Z,99037.00
2023-04-11T15:41:20.692Z,99033.00
2023-04-11T15:42:54.537Z,99036.00
2023-04-11T15:44:27.709Z,99037.00
2023-04-11T15:46:03.247Z,99031.00
2023-04-11T15:47:36.443Z,99028.00
2023-04-11T15:49:09.608Z,99022.00
2023-04-11T15:50:44.738Z,99015.00
2023-04-11T15:52:21.781Z,99020.00
2023-04-11T15:53:55.590Z,99033.00
2023-04-11T15:55:29.495Z,99031.00
2023-04-11T15:57:03.561Z,99026.00
2023-04-11T15:58:36.675Z,99032.00
2023-04-11T16:00:11.453Z,99034.00
2023-04-11T16:01:44.711Z,99029.00
2023-04-11T16:03:18.195Z,99032.00
2023-04-11T16:04:53.999Z,99027.00
2023-04-11T16:06:27.512Z,99021.00
2023-04-11T16:08:02.106Z,99026.00
2023-04-11T16:09:35.607Z,99021.00
2023-04-11T16:11:08.987Z,99018.00
2023-04-11T16:12:42.557Z,99031.00
2023-04-11T16:14:15.710Z,99018.00
2023-04-11T16:15:48.898Z,99020.00
2023-04-11T16:17:22.114Z,99019.00
2023-04-11T16:18:55.301Z,99015.00
2023-04-11T16:20:29.084Z,99010.00
2023-04-11T16:22:02.746Z,99014.00
2023-04-11T16:23:37.350Z,99007.00
2023-04-11T16:25:11.230Z,99006.00
2023-04-11T16:26:45.168Z,99002.00
2023-04-11T16:28:18.366Z,99017.00
2023-04-11T16:29:53.844Z,99009.00
2023-04-11T16:31:27.114Z,98997.00
2023-04-11T16:33:00.384Z,99006.00
2023-04-11T16:34:33.876Z,99006.00
2023-04-11T16:36:07.874Z,99004.00
2023-04-11T16:37:41.086Z,99010.00
2023-04-11T16:39:15.797Z,99010.00
2023-04-11T16:40:49.111Z,99005.00
2023-04-11T16:42:22.293Z,99008.00
2023-04-11T16:43:55.738Z,99000.00
2023-04-11T16:45:29.315Z,98999.00
2023-04-11T16:47:03.412Z,98998.00
2023-04-11T16:48:36.629Z,99000.00
2023-04-11T16:50:10.642Z,98996.00
2023-04-11T16:51:44.050Z,98995.00
2023-04-11T16:53:18.663Z,98994.00
2023-04-11T16:54:53.331Z,98996.00
2023-04-11T16:56:28.905Z,99003.00
2023-04-11T16:58:02.319Z,99002.00
2023-04-11T16:59:35.615Z,99005.00
2023-04-11T17:01:10.011Z,98997.00
2023-04-11T17:02:43.625Z,98994.00
2023-04-11T17:04:16.991Z,99002.00
2023-04-11T17:05:50.384Z,99004.00
2023-04-11T17:07:23.519Z,99008.00
2023-04-11T17:08:57.790Z,99013.00
2023-04-11T17:10:32.513Z,99008.00
2023-04-11T17:12:06.074Z,99010.00
2023-04-11T17:13:40.028Z,99011.00
2023-04-11T17:15:13.516Z,99004.00
2023-04-11T17:16:46.724Z,99015.00
2023-04-11T17:18:19.944Z,99009.00
2023-04-11T17:19:53.163Z,99009.00
2023-04-11T17:21:27.350Z,99008.00
2023-04-11T17:23:00.605Z,99009.00
2023-04-11T17:24:33.797Z,99007.00
2023-04-11T17:26:08.473Z,99006.00
2023-04-11T17:27:42.423Z,99011.00
2023-04-11T17:29:16.033Z,99011.00
2023-04-11T17:30:50.016Z,99008.00
2023-04-11T17:32:25.995Z,99000.00
2023-04-11T17:33:59.970Z,99003.00
2023-04-11T17:35:33.363Z,99011.00
2023-04-11T17:37:07.177Z,99010.00
2023-04-11T17:38:42.010Z,99012.00
2023-04-11T17:40:15.516Z,98999.00
2023-04-11T17:41:50.202Z,99008.00
2023-04-11T17:43:26.016Z,99003.00
2023-04-11T17:45:09.941Z,99003.00
2023-04-11T17:46:47.597Z,99004.00
2023-04-11T17:48:22.901Z,99004.00
2023-04-11T17:49:56.772Z,99005.00
2023-04-11T17:51:30.059Z,99009.00
2023-04-11T17:53:04.692Z,99005.00
2023-04-11T17:54:38.659Z,99003.00
2023-04-11T17:56:12.527Z,98995.00
2023-04-11T17:57:48.880Z,98994.00
2023-04-11T17:59:22.519Z,98998.00
2023-04-11T18:00:57.060Z,98996.00
2023-04-11T18:02:31.993Z,98995.00
2023-04-11T18:04:07.578Z,98996.00
2023-04-11T18:05:41.784Z,98999.00
2023-04-11T18:07:15.097Z,98996.00
2023-04-11T18:08:52.119Z,98992.00
2023-04-11T18:10:28.198Z,98990.00
2023-04-11T18:12:01.605Z,98990.00
2023-04-11T18:13:36.599Z,98987.00
2023-04-11T18:15:11.800Z,98999.00
2023-04-11T18:16:47.388Z,98989.00
2023-04-11T18:18:20.701Z,99001.00
2023-04-11T18:19:54.061Z,98988.00
2023-04-11T18:21:28.111Z,98993.00
2023-04-11T18:23:01.698Z,98992.00
2023-04-11T18:24:34.977Z,98987.00
2023-04-11T18:26:08.508Z,98989.00
2023-04-11T18:27:42.287Z,98980.00
2023-04-11T18:29:17.095Z,98983.00
2023-04-11T18:30:50.205Z,98983.00
2023-04-11T18:32:26.316Z,98986.00
2023-04-11T18:34:03.382Z,98985.00
2023-04-11T18:35:37.386Z,98974.00
2023-04-11T18:37:10.779Z,98982.00
2023-04-11T18:38:44.481Z,98982.00
2023-04-11T18:40:18.739Z,98985.00